createdAt,value
2019-02-22T00:02:15.113Z,100.00
2019-02-22T00:04:43.762Z,100.00
2019-02-22T00:07:12.306Z,100.00
2019-02-22T00:09:49.089Z,100.00
2019-02-22T00:12:11.343Z,100.00
2019-02-22T00:14:39.909Z,100.00
2019-02-22T00:21:23.688Z,100.00
2019-02-22T00:23:52.371Z,100.00
2019-02-22T00:26:21.019Z,100.00
2019-02-22T00:28:49.560Z,100.00
2019-02-22T00:31:18.210Z,100.00
2019-02-22T00:33:46.901Z,100.00
2019-02-22T00:36:15.581Z,100.00
2019-02-22T00:38:44.194Z,100.00
2019-02-22T00:41:12.843Z,100.00
2019-02-22T00:43:44.023Z,100.00
2019-02-22T00:46:12.589Z,100.00
2019-02-22T00:48:41.127Z,99.95
2019-02-22T00:51:09.756Z,94.86
2019-02-22T00:53:38.304Z,92.95
2019-02-22T00:56:06.908Z,91.91
2019-02-22T00:58:35.405Z,89.81
2019-02-22T01:01:03.956Z,88.81
2019-02-22T01:03:32.632Z,87.79
2019-02-22T01:06:01.185Z,87.42
2019-02-22T01:08:29.811Z,88.17
2019-02-22T01:10:58.370Z,88.65
2019-02-22T01:13:26.932Z,88.47
2019-02-22T01:15:55.477Z,87.46
2019-02-22T01:18:23.970Z,87.93
2019-02-22T01:20:54.646Z,87.28
2019-02-22T01:23:22.855Z,86.08
2019-02-22T01:25:51.458Z,85.19
2019-02-22T01:28:20.118Z,84.85
2019-02-22T01:30:48.679Z,84.97
2019-02-22T01:33:17.191Z,84.45
2019-02-22T01:35:45.662Z,84.20
2019-02-22T01:38:14.338Z,83.39
2019-02-22T01:40:44.160Z,83.58
2019-02-22T01:43:13.279Z,84.40
2019-02-22T01:45:41.833Z,86.20
2019-02-22T01:48:10.503Z,87.48
2019-02-22T01:50:39.139Z,89.68
2019-02-22T01:53:07.749Z,91.00
2019-02-22T01:55:36.418Z,92.70
2019-02-22T01:58:05.113Z,90.76
2019-02-22T02:00:33.759Z,90.64
2019-02-22T02:03:02.253Z,91.22
2019-02-22T02:05:30.941Z,91.18
2019-02-22T02:07:59.593Z,90.78
2019-02-22T02:10:28.157Z,91.76
2019-02-22T02:12:56.760Z,92.13
2019-02-22T02:15:25.318Z,94.97
2019-02-22T02:17:53.994Z,98.13
2019-02-22T02:20:22.750Z,97.83
2019-02-22T02:22:51.396Z,97.57
2019-02-22T02:25:20.021Z,97.20
2019-02-22T02:27:48.630Z,97.02
2019-02-22T02:30:17.307Z,98.35
2019-02-22T02:32:45.857Z,99.05
2019-02-22T02:35:14.541Z,97.42
2019-02-22T02:37:43.186Z,98.58
2019-02-22T02:40:11.868Z,99.21
2019-02-22T02:42:40.486Z,98.50
2019-02-22T02:45:09.156Z,96.53
2019-02-22T02:47:37.639Z,94.93
2019-02-22T02:50:07.590Z,93.92
2019-02-22T02:52:36.233Z,93.20
2019-02-22T02:55:06.289Z,93.46
2019-02-22T02:57:34.855Z,93.54
2019-02-22T03:00:06.209Z,94.62
2019-02-22T03:02:34.753Z,95.69
2019-02-22T03:05:03.298Z,95.29
2019-02-22T03:07:42.454Z,94.18
2019-02-22T03:10:11.384Z,93.09
2019-02-22T03:12:40.061Z,92.84
2019-02-22T03:15:11.218Z,89.44
2019-02-22T03:17:39.900Z,86.59
2019-02-22T03:20:09.433Z,85.98
2019-02-22T03:22:38.023Z,85.96
2019-02-22T03:25:10.948Z,85.67
2019-02-22T03:27:39.537Z,86.16
2019-02-22T03:30:10.636Z,87.67
2019-02-22T03:32:39.321Z,88.47
2019-02-22T03:35:08.249Z,89.40
2019-02-22T03:37:36.737Z,89.80
2019-02-22T03:40:07.379Z,89.11
2019-02-22T03:42:36.054Z,89.97
2019-02-22T03:45:09.076Z,89.60
2019-02-22T03:47:37.599Z,88.61
2019-02-22T03:50:08.215Z,89.21
2019-02-22T03:52:41.218Z,87.75
2019-02-22T03:55:09.839Z,86.76
2019-02-22T03:57:38.373Z,85.69
2019-02-22T04:00:11.319Z,85.58
2019-02-22T04:02:39.920Z,87.10
2019-02-22T04:05:09.052Z,86.54
2019-02-22T04:07:37.622Z,84.83
2019-02-22T04:10:11.361Z,84.44
2019-02-22T04:12:39.975Z,85.00
2019-02-22T04:15:10.282Z,85.32
2019-02-22T04:17:38.829Z,85.63
2019-02-22T04:20:08.361Z,86.39
2019-02-22T04:22:37.044Z,86.99
2019-02-22T04:25:06.593Z,86.41
2019-02-22T04:27:35.204Z,85.75
2019-02-22T04:30:04.434Z,85.56
2019-02-22T04:32:33.099Z,85.63
2019-02-22T04:35:01.643Z,85.77
2019-02-22T04:37:30.316Z,86.30
2019-02-22T04:39:58.921Z,87.06
2019-02-22T04:42:27.545Z,86.84
2019-02-22T04:44:56.033Z,87.57
2019-02-22T04:47:24.596Z,88.42
2019-02-22T04:49:53.225Z,87.65
2019-02-22T04:52:21.715Z,84.56
2019-02-22T04:54:50.366Z,84.52
2019-02-22T04:57:18.971Z,85.80
2019-02-22T04:59:47.536Z,86.83
2019-02-22T05:02:16.081Z,87.76
2019-02-22T05:04:44.632Z,88.15
2019-02-22T05:07:13.099Z,87.11
2019-02-22T05:09:41.664Z,86.13
2019-02-22T05:12:11.349Z,85.84
2019-02-22T05:14:40.546Z,85.46
2019-02-22T05:17:09.133Z,85.06
2019-02-22T05:19:37.702Z,85.45
2019-02-22T05:22:06.376Z,87.07
2019-02-22T05:24:34.983Z,87.36
2019-02-22T05:27:03.741Z,87.59
2019-02-22T05:29:32.362Z,86.90
2019-02-22T05:32:00.928Z,87.36
2019-02-22T05:34:29.457Z,88.79
2019-02-22T05:36:58.060Z,89.10
2019-02-22T05:39:26.731Z,91.88
2019-02-22T05:41:55.294Z,93.30
2019-02-22T05:44:23.951Z,94.23
2019-02-22T05:47:00.463Z,92.93
2019-02-22T05:49:22.783Z,89.26
2019-02-22T05:51:51.369Z,87.49
2019-02-22T05:54:20.006Z,86.95
2019-02-22T05:56:48.514Z,87.60
2019-02-22T05:59:17.153Z,87.71
2019-02-22T06:01:45.695Z,87.32
2019-02-22T06:04:14.375Z,86.55
2019-02-22T06:06:42.916Z,83.99
2019-02-22T06:09:11.810Z,81.67
2019-02-22T06:11:41.730Z,78.49
2019-02-22T06:14:10.565Z,76.13
2019-02-22T06:16:40.971Z,75.10
2019-02-22T06:19:16.089Z,73.31
2019-02-22T06:21:51.170Z,72.81
2019-02-22T06:24:22.018Z,71.51
2019-02-22T06:26:52.834Z,69.64
2019-02-22T06:29:24.066Z,70.05
2019-02-22T06:31:54.433Z,69.82
2019-02-22T06:34:25.902Z,69.49
2019-02-22T06:37:01.965Z,70.48
2019-02-22T06:39:29.745Z,69.73
2019-02-22T06:42:00.458Z,71.54
2019-02-22T06:44:32.498Z,67.29
2019-02-22T06:47:02.518Z,65.91
2019-02-22T06:49:32.301Z,62.98
2019-02-22T06:52:02.085Z,59.62
2019-02-22T06:54:32.366Z,57.77
2019-02-22T06:57:07.205Z,56.75
2019-02-22T06:59:35.338Z,58.33
2019-02-22T07:02:04.013Z,59.12
2019-02-22T07:04:32.603Z,60.21
2019-02-22T07:07:01.662Z,59.63
2019-02-22T07:09:30.456Z,59.32
2019-02-22T07:12:06.435Z,58.74
2019-02-22T07:14:34.629Z,58.73
2019-02-22T07:17:03.345Z,58.79
2019-02-22T07:19:32.241Z,56.97
2019-02-22T07:22:03.569Z,56.90
2019-02-22T07:24:39.467Z,57.69
2019-02-22T07:27:07.242Z,57.14
2019-02-22T07:29:37.992Z,57.00
2019-02-22T07:32:10.407Z,55.21
2019-02-22T07:34:42.227Z,55.02
2019-02-22T07:37:10.957Z,54.04
2019-02-22T07:39:42.458Z,53.44
2019-02-22T07:42:14.921Z,53.72
2019-02-22T07:44:43.708Z,53.54
2019-02-22T07:47:12.333Z,53.49
2019-02-22T07:49:41.062Z,53.00
2019-02-22T07:52:09.808Z,53.19
2019-02-22T07:54:38.475Z,53.23
2019-02-22T07:57:07.138Z,53.47
2019-02-22T07:59:35.731Z,54.96
2019-02-22T08:02:04.446Z,53.68
2019-02-22T08:04:32.921Z,53.65
2019-02-22T08:07:01.495Z,52.73
2019-02-22T08:09:33.260Z,52.24
2019-02-22T08:12:05.376Z,51.75
2019-02-22T08:14:34.028Z,51.89
2019-02-22T08:17:02.572Z,51.14
2019-02-22T08:19:31.132Z,51.01
2019-02-22T08:22:00.332Z,50.80
2019-02-22T08:24:29.112Z,51.20
2019-02-22T08:26:57.826Z,50.34
2019-02-22T08:29:29.550Z,50.69
2019-02-22T08:32:00.072Z,51.38
2019-02-22T08:34:28.777Z,50.77
2019-02-22T08:36:57.617Z,51.00
2019-02-22T08:39:26.555Z,51.48
2019-02-22T08:41:55.273Z,50.30
2019-02-22T08:44:24.072Z,50.04
2019-02-22T08:46:52.784Z,48.93
2019-02-22T08:49:21.470Z,48.60
2019-02-22T08:51:50.209Z,48.34
2019-02-22T08:54:18.916Z,48.58
2019-02-22T08:56:47.608Z,48.21
2019-02-22T08:59:16.187Z,48.25
2019-02-22T09:01:44.907Z,47.20
2019-02-22T09:04:13.550Z,47.50
2019-02-22T09:06:42.344Z,46.80
2019-02-22T09:09:11.113Z,46.89
2019-02-22T09:11:39.746Z,46.51
2019-02-22T09:14:08.506Z,47.35
2019-02-22T09:16:37.511Z,47.82
2019-02-22T09:19:06.235Z,47.85
2019-02-22T09:21:34.969Z,48.04
2019-02-22T09:24:03.618Z,46.26
2019-02-22T09:26:32.440Z,46.08
2019-02-22T09:29:01.166Z,46.26
2019-02-22T09:31:29.937Z,46.11
2019-02-22T09:33:58.634Z,45.42
2019-02-22T09:36:27.470Z,45.84
2019-02-22T09:38:59.030Z,44.86
2019-02-22T09:41:27.885Z,44.33
2019-02-22T09:43:56.870Z,45.17
2019-02-22T09:46:25.749Z,45.38
2019-02-22T09:48:54.493Z,45.55
2019-02-22T09:51:23.472Z,45.75
2019-02-22T09:53:52.346Z,45.75
2019-02-22T09:56:21.189Z,45.96
2019-02-22T09:58:49.751Z,46.48
2019-02-22T10:01:18.426Z,47.28
2019-02-22T10:03:47.046Z,47.02
2019-02-22T10:06:18.534Z,46.94
2019-02-22T10:08:47.079Z,47.00
2019-02-22T10:11:15.692Z,47.18
2019-02-22T10:13:44.329Z,47.88
2019-02-22T10:16:13.103Z,47.81
2019-02-22T10:18:41.715Z,47.87
2019-02-22T10:21:10.353Z,48.40
2019-02-22T10:23:38.995Z,49.11
2019-02-22T10:26:07.685Z,48.87
2019-02-22T10:28:36.382Z,48.96
2019-02-22T10:31:05.078Z,49.49
2019-02-22T10:33:37.042Z,49.86
2019-02-22T10:36:05.898Z,49.92
2019-02-22T10:38:36.003Z,50.41
2019-02-22T10:41:04.905Z,50.14
2019-02-22T10:43:33.658Z,50.57
2019-02-22T10:46:02.369Z,50.14
2019-02-22T10:48:31.140Z,50.00
2019-02-22T10:50:59.716Z,50.04
2019-02-22T10:53:28.288Z,49.43
2019-02-22T10:55:57.024Z,49.00
2019-02-22T10:58:25.904Z,48.86
2019-02-22T11:04:23.103Z,48.46
2019-02-22T11:06:51.963Z,48.27
2019-02-22T11:09:20.746Z,48.53
2019-02-22T11:11:55.710Z,48.12
2019-02-22T11:14:29.300Z,48.20
2019-02-22T11:16:54.900Z,47.58
2019-02-22T11:19:23.586Z,47.66
2019-02-22T11:21:52.165Z,47.89
2019-02-22T11:28:07.882Z,47.75
2019-02-22T11:30:36.812Z,47.51
2019-02-22T11:33:08.531Z,47.93
2019-02-22T11:35:37.334Z,47.51
2019-02-22T11:38:06.147Z,47.24
2019-02-22T11:40:34.961Z,47.38
2019-02-22T11:43:03.655Z,47.36
2019-02-22T11:45:32.381Z,47.49
2019-02-22T11:48:08.760Z,46.92
2019-02-22T11:51:26.116Z,47.46
2019-02-22T11:53:54.874Z,47.54
2019-02-22T11:56:23.857Z,47.67
2019-02-22T11:58:52.566Z,47.76
2019-02-22T12:01:21.413Z,48.84
2019-02-22T12:03:53.018Z,47.92
2019-02-22T12:06:21.647Z,50.24
2019-02-22T12:08:50.391Z,53.10
2019-02-22T12:11:19.145Z,55.39
2019-02-22T12:13:48.137Z,57.85
2019-02-22T12:16:16.830Z,64.02
2019-02-22T12:18:45.446Z,64.57
2019-02-22T12:21:14.013Z,68.00
2019-02-22T12:23:42.803Z,69.27
2019-02-22T12:26:11.553Z,68.96
2019-02-22T12:28:40.291Z,66.65
2019-02-22T12:31:10.222Z,69.95
2019-02-22T12:33:39.067Z,71.66
2019-02-22T12:36:09.629Z,73.59
2019-02-22T12:38:39.806Z,77.44
2019-02-22T12:41:08.508Z,82.05
2019-02-22T12:43:40.442Z,82.98
2019-02-22T12:46:09.191Z,84.14
2019-02-22T12:48:37.961Z,84.04
2019-02-22T12:51:06.729Z,80.78
2019-02-22T12:53:35.374Z,80.75
2019-02-22T12:56:04.113Z,81.33
2019-02-22T12:58:32.701Z,84.94
2019-02-22T13:01:01.290Z,86.09
2019-02-22T13:03:29.933Z,90.16
2019-02-22T13:05:58.533Z,96.56
2019-02-22T13:08:27.147Z,94.72
2019-02-22T13:10:55.748Z,95.02
2019-02-22T13:13:27.566Z,96.88
2019-02-22T13:15:56.136Z,94.46
2019-02-22T13:18:24.805Z,98.77
2019-02-22T13:20:53.476Z,99.17
2019-02-22T13:23:24.915Z,100.00
2019-02-22T13:25:54.684Z,100.00
2019-02-22T13:28:23.425Z,100.00
2019-02-22T13:30:52.131Z,100.00
2019-02-22T13:33:21.033Z,100.00
2019-02-22T13:35:49.856Z,100.00
2019-02-22T13:38:18.655Z,100.00
2019-02-22T13:40:50.673Z,100.00
2019-02-22T13:43:19.379Z,100.00
2019-02-22T13:45:48.037Z,100.00
2019-02-22T13:48:16.755Z,100.00
2019-02-22T13:50:45.492Z,100.00
2019-02-22T13:53:14.106Z,100.00
2019-02-22T13:55:42.864Z,100.00
2019-02-22T13:58:11.581Z,100.00
2019-02-22T14:00:42.831Z,100.00
2019-02-22T14:03:11.470Z,100.00
2019-02-22T14:05:40.280Z,100.00
2019-02-22T14:08:08.858Z,100.00
2019-02-22T14:10:37.485Z,100.00
2019-02-22T14:13:06.118Z,100.00
2019-02-22T14:15:37.956Z,100.00
2019-02-22T14:18:05.146Z,100.00
2019-02-22T14:20:33.768Z,100.00
2019-02-22T14:23:03.620Z,100.00
2019-02-22T14:25:32.514Z,100.00
2019-02-22T14:28:01.121Z,100.00
2019-02-22T14:30:32.614Z,100.00
2019-02-22T14:33:01.215Z,100.00
2019-02-22T14:35:29.755Z,100.00
2019-02-22T14:37:58.365Z,100.00
2019-02-22T14:40:27.063Z,100.00
2019-02-22T14:42:55.612Z,100.00
2019-02-22T14:45:24.220Z,100.00
2019-02-22T14:47:52.827Z,100.00
2019-02-22T14:50:23.302Z,100.00
2019-02-22T14:52:51.816Z,100.00
2019-02-22T14:55:20.414Z,100.00
2019-02-22T14:57:48.963Z,100.00
2019-02-22T15:00:19.223Z,100.00
2019-02-22T15:02:47.951Z,100.00
2019-02-22T15:05:19.269Z,100.00
2019-02-22T15:07:48.208Z,100.00
2019-02-22T15:10:18.505Z,100.00
2019-02-22T15:12:47.471Z,100.00
2019-02-22T15:15:17.988Z,100.00
2019-02-22T15:17:48.256Z,100.00
2019-02-22T15:20:16.882Z,100.00
2019-02-22T15:22:45.572Z,100.00
2019-02-22T15:25:15.914Z,100.00
2019-02-22T15:27:44.516Z,100.00
2019-02-22T15:30:15.057Z,100.00
2019-02-22T15:32:43.682Z,100.00
2019-02-22T15:35:16.997Z,100.00
2019-02-22T15:37:45.617Z,100.00
2019-02-22T15:40:14.988Z,100.00
2019-02-22T15:42:43.540Z,100.00
2019-02-22T15:45:14.987Z,100.00
2019-02-22T15:47:43.606Z,100.00
2019-02-22T15:50:16.847Z,100.00
2019-02-22T15:52:46.335Z,100.00
2019-02-22T15:55:17.979Z,100.00
2019-02-22T15:57:46.611Z,100.00
2019-02-22T16:00:34.654Z,100.00
2019-02-22T16:03:03.281Z,100.00
2019-02-22T16:05:42.642Z,100.00
2019-02-22T16:08:11.277Z,100.00
2019-02-22T16:10:39.738Z,100.00
2019-02-22T16:13:08.340Z,100.00
2019-02-22T16:15:37.035Z,100.00
2019-02-22T16:18:05.689Z,100.00
2019-02-22T16:20:34.321Z,100.00
2019-02-22T16:23:02.952Z,100.00
2019-02-22T16:25:31.555Z,100.00
2019-02-22T16:28:00.113Z,100.00
2019-02-22T16:30:32.354Z,100.00
2019-02-22T16:33:00.987Z,100.00
2019-02-22T16:35:29.671Z,100.00
2019-02-22T16:37:58.230Z,100.00
2019-02-22T16:40:26.844Z,100.00
2019-02-22T16:42:55.377Z,100.00
2019-02-22T16:45:24.080Z,100.00
2019-02-22T16:47:52.624Z,100.00
2019-02-22T16:50:21.174Z,100.00
2019-02-22T16:52:49.749Z,100.00
2019-02-22T16:55:18.391Z,100.00
2019-02-22T16:57:47.058Z,100.00
2019-02-22T17:00:16.835Z,100.00
2019-02-22T17:02:45.483Z,100.00
2019-02-22T17:05:17.604Z,100.00
2019-02-22T17:07:46.242Z,100.00
2019-02-22T17:10:18.683Z,100.00
2019-02-22T17:12:47.361Z,100.00
2019-02-22T17:15:15.997Z,100.00
2019-02-22T17:17:48.980Z,100.00
2019-02-22T17:20:24.409Z,100.00
2019-02-22T17:22:52.976Z,100.00
2019-02-22T17:25:22.136Z,100.00
2019-02-22T17:27:50.822Z,100.00
2019-02-22T17:30:21.027Z,100.00
2019-02-22T17:32:49.593Z,100.00
2019-02-22T17:35:21.173Z,100.00
2019-02-22T17:37:49.853Z,100.00
2019-02-22T17:40:21.442Z,100.00
2019-02-22T17:42:50.063Z,100.00
2019-02-22T17:45:18.765Z,100.00
2019-02-22T17:47:47.456Z,100.00
2019-02-22T17:50:16.077Z,100.00
2019-02-22T17:52:44.679Z,100.00
2019-02-22T17:55:13.308Z,100.00
2019-02-22T17:57:41.918Z,100.00
2019-02-22T18:00:17.008Z,100.00
2019-02-22T18:02:45.550Z,100.00
2019-02-22T18:05:14.222Z,100.00
2019-02-22T18:07:42.851Z,100.00
2019-02-22T18:10:11.922Z,100.00
2019-02-22T18:12:40.541Z,100.00
2019-02-22T18:15:19.469Z,100.00
2019-02-22T18:17:50.792Z,100.00
2019-02-22T18:20:19.496Z,100.00
2019-02-22T18:22:48.117Z,100.00
2019-02-22T18:25:16.750Z,100.00
2019-02-22T18:27:45.428Z,100.00
2019-02-22T18:30:22.009Z,100.00
2019-02-22T18:32:50.623Z,100.00
2019-02-22T18:35:19.259Z,100.00
2019-02-22T18:37:48.155Z,100.00
2019-02-22T18:40:20.762Z,100.00
2019-02-22T18:42:49.437Z,100.00
2019-02-22T18:45:18.112Z,100.00
2019-02-22T18:48:09.305Z,100.00
2019-02-22T18:50:45.198Z,100.00
2019-02-22T18:53:13.669Z,100.00
2019-02-22T18:55:50.120Z,100.00
2019-02-22T18:58:18.248Z,100.00
2019-02-22T19:00:46.751Z,100.00
2019-02-22T19:03:18.410Z,100.00
2019-02-22T19:05:47.018Z,100.00
2019-02-22T19:08:15.674Z,100.00
2019-02-22T19:10:44.113Z,100.00
2019-02-22T19:13:12.784Z,100.00
2019-02-22T19:15:45.612Z,100.00
2019-02-22T19:18:14.173Z,100.00
2019-02-22T19:20:42.721Z,100.00
2019-02-22T19:23:11.406Z,100.00
2019-02-22T19:25:44.252Z,100.00
2019-02-22T19:28:17.097Z,100.00
2019-02-22T19:30:45.658Z,100.00
2019-02-22T19:33:14.251Z,100.00
2019-02-22T19:35:42.886Z,100.00
2019-02-22T19:38:15.678Z,100.00
2019-02-22T19:40:44.297Z,100.00
2019-02-22T19:43:12.895Z,100.00
2019-02-22T19:45:41.587Z,100.00
2019-02-22T19:48:10.253Z,100.00
2019-02-22T19:50:41.686Z,100.00
2019-02-22T19:53:09.170Z,100.00
2019-02-22T19:55:37.815Z,100.00
2019-02-22T19:58:06.407Z,100.00
2019-02-22T20:00:35.020Z,100.00
2019-02-22T20:03:03.660Z,100.00
2019-02-22T20:05:32.400Z,100.00
2019-02-22T20:08:00.933Z,100.00
2019-02-22T20:10:29.615Z,100.00
2019-02-22T20:12:58.254Z,100.00
2019-02-22T20:15:26.929Z,100.00
2019-02-22T20:17:55.483Z,100.00
2019-02-22T20:20:24.057Z,100.00
2019-02-22T20:22:52.657Z,100.00
2019-02-22T20:25:21.346Z,100.00
2019-02-22T20:27:52.907Z,100.00
2019-02-22T20:30:21.557Z,100.00
2019-02-22T20:32:52.965Z,100.00
2019-02-22T20:35:26.686Z,100.00
2019-02-22T20:37:59.673Z,100.00
2019-02-22T20:40:28.244Z,100.00
2019-02-22T20:42:56.803Z,100.00
2019-02-22T20:45:25.460Z,100.00
2019-02-22T20:48:04.542Z,100.00
2019-02-22T20:50:24.402Z,100.00
2019-02-22T20:52:53.030Z,100.00
2019-02-22T20:55:21.536Z,100.00
2019-02-22T20:57:50.205Z,100.00
2019-02-22T21:00:26.028Z,100.00
2019-02-22T21:02:54.701Z,100.00
2019-02-22T21:05:23.259Z,100.00
2019-02-22T21:07:51.868Z,100.00
2019-02-22T21:10:21.511Z,100.00
2019-02-22T21:12:50.137Z,100.00
2019-02-22T21:15:21.477Z,100.00
2019-02-22T21:17:50.102Z,100.00
2019-02-22T21:20:20.993Z,100.00
2019-02-22T21:22:49.627Z,100.00
2019-02-22T21:25:18.303Z,100.00
2019-02-22T21:27:47.099Z,100.00
2019-02-22T21:30:17.870Z,100.00
2019-02-22T21:32:46.423Z,100.00
2019-02-22T21:35:15.039Z,100.00
2019-02-22T21:37:44.485Z,100.00
2019-02-22T21:40:13.815Z,100.00
2019-02-22T21:42:42.458Z,100.00
2019-02-22T21:45:15.130Z,100.00
2019-02-22T21:47:54.239Z,100.00
2019-02-22T21:50:15.073Z,100.00
2019-02-22T21:52:43.824Z,100.00
2019-02-22T21:55:13.575Z,100.00
2019-02-22T21:57:42.264Z,100.00
2019-02-22T22:00:32.470Z,100.00
2019-02-22T22:57:34.860Z,100.00
2019-02-22T23:03:40.107Z,100.00
2019-02-22T23:09:44.829Z,100.00
2019-02-22T23:15:54.648Z,100.00
